DAL190 KATL-KMSY
Flight info
| Callsign | DAL190 |
|---|---|
| Flight time | N/A |
| Altitude | 34000 |
| Route | POUNC2 GRGIA SJI MNSTR1 |
| Aircraft | A21N/M-SDE2E3FGHIRWXY/LB1 |
Departure
| Time | 2026-05-07 00:15 |
|---|---|
| Airport | Hartsfield Jackson Atlanta International Airport (KATL) |
Arrival
| Time | N/A |
|---|---|
| Airport | Louis Armstrong New Orleans International Airport (KMSY) |
| Time | Latitude | Longitude | Altitude | Speed | Heading |
|---|---|---|---|---|---|
| 2026-05-06 23:27 | 33.63799 | -84.43970 | 1041 ft | 0 kts | 90° |
| 2026-05-07 00:01 | 33.63800 | -84.44007 | 1041 ft | 4 kts | 84° |
| 2026-05-07 00:01 | 33.63792 | -84.44036 | 1041 ft | 4 kts | 51° |
| 2026-05-07 00:01 | 33.63773 | -84.44051 | 1041 ft | 4 kts | 5° |
| 2026-05-07 00:01 | 33.63762 | -84.44052 | 1041 ft | 1 kts | 0° |
| 2026-05-07 00:06 | 33.63769 | -84.44052 | 1041 ft | 3 kts | 0° |
| 2026-05-07 00:06 | 33.63804 | -84.44051 | 1041 ft | 7 kts | 1° |
| 2026-05-07 00:07 | 33.63871 | -84.44050 | 1041 ft | 12 kts | 359° |
| 2026-05-07 00:07 | 33.63968 | -84.44051 | 1041 ft | 16 kts | 359° |
| 2026-05-07 00:07 | 33.64086 | -84.44052 | 1041 ft | 18 kts | 360° |
| 2026-05-07 00:07 | 33.64214 | -84.44051 | 1041 ft | 17 kts | 0° |
| 2026-05-07 00:08 | 33.64308 | -84.44051 | 1041 ft | 14 kts | 0° |
| 2026-05-07 00:08 | 33.64411 | -84.44035 | 1041 ft | 16 kts | 41° |
| 2026-05-07 00:08 | 33.64438 | -84.43902 | 1041 ft | 18 kts | 82° |
| 2026-05-07 00:08 | 33.64456 | -84.43750 | 1041 ft | 19 kts | 85° |
| 2026-05-07 00:09 | 33.64459 | -84.43584 | 1041 ft | 21 kts | 90° |
| 2026-05-07 00:09 | 33.64460 | -84.43406 | 1041 ft | 22 kts | 90° |
| 2026-05-07 00:09 | 33.64460 | -84.43215 | 1041 ft | 24 kts | 90° |
| 2026-05-07 00:09 | 33.64460 | -84.43013 | 1041 ft | 25 kts | 90° |
| 2026-05-07 00:10 | 33.64461 | -84.42803 | 1041 ft | 21 kts | 90° |
| 2026-05-07 00:10 | 33.64471 | -84.42620 | 1041 ft | 23 kts | 91° |
| 2026-05-07 00:10 | 33.64469 | -84.42493 | 1041 ft | 24 kts | 90° |
| 2026-05-07 00:10 | 33.64472 | -84.42291 | 1040 ft | 25 kts | 83° |
| 2026-05-07 00:11 | 33.64541 | -84.42116 | 1040 ft | 19 kts | 81° |
| 2026-05-07 00:11 | 33.64543 | -84.41953 | 1041 ft | 20 kts | 90° |
| 2026-05-07 00:11 | 33.64543 | -84.41778 | 1041 ft | 22 kts | 90° |
| 2026-05-07 00:11 | 33.64543 | -84.41590 | 1041 ft | 23 kts | 90° |
| 2026-05-07 00:12 | 33.64543 | -84.41390 | 1041 ft | 25 kts | 90° |
| 2026-05-07 00:12 | 33.64543 | -84.41178 | 1041 ft | 26 kts | 90° |
| 2026-05-07 00:12 | 33.64543 | -84.40985 | 1041 ft | 14 kts | 90° |
| 2026-05-07 00:12 | 33.64543 | -84.40857 | 1040 ft | 16 kts | 87° |
| 2026-05-07 00:13 | 33.64571 | -84.40721 | 1040 ft | 18 kts | 89° |
| 2026-05-07 00:13 | 33.64571 | -84.40612 | 1040 ft | 7 kts | 80° |
| 2026-05-07 00:13 | 33.64607 | -84.40573 | 1039 ft | 8 kts | 9° |
| 2026-05-07 00:13 | 33.64669 | -84.40580 | 1038 ft | 10 kts | 327° |
| 2026-05-07 00:14 | 33.64679 | -84.40668 | 1038 ft | 12 kts | 270° |
| 2026-05-07 00:14 | 33.64679 | -84.41015 | 1041 ft | 78 kts | 271° |
| 2026-05-07 00:14 | 33.64679 | -84.41924 | 1041 ft | 137 kts | 269° |
| 2026-05-07 00:14 | 33.64683 | -84.43195 | 1178 ft | 160 kts | 272° |
| 2026-05-07 00:15 | 33.64725 | -84.44513 | 1744 ft | 164 kts | 271° |
| 2026-05-07 00:15 | 33.64713 | -84.45890 | 2340 ft | 166 kts | 264° |
| 2026-05-07 00:15 | 33.64827 | -84.47334 | 2771 ft | 187 kts | 279° |
| 2026-05-07 00:15 | 33.65212 | -84.48888 | 3297 ft | 202 kts | 281° |
| 2026-05-07 00:16 | 33.65589 | -84.50603 | 3726 ft | 226 kts | 277° |
| 2026-05-07 00:16 | 33.65914 | -84.52543 | 4254 ft | 246 kts | 277° |
| 2026-05-07 00:16 | 33.66283 | -84.54589 | 5032 ft | 254 kts | 277° |
| 2026-05-07 00:16 | 33.66673 | -84.56672 | 5937 ft | 257 kts | 279° |
| 2026-05-07 00:17 | 33.67076 | -84.58771 | 6835 ft | 259 kts | 279° |
| 2026-05-07 00:17 | 33.67321 | -84.60172 | 7409 ft | 259 kts | 277° |
| 2026-05-07 00:17 | 33.67548 | -84.61538 | 7964 ft | 260 kts | 277° |
| 2026-05-07 00:17 | 33.67902 | -84.63674 | 8838 ft | 262 kts | 277° |
| 2026-05-07 00:18 | 33.68265 | -84.65824 | 9693 ft | 263 kts | 278° |
| 2026-05-07 00:18 | 33.68632 | -84.68000 | 10306 ft | 274 kts | 277° |
| 2026-05-07 00:18 | 33.69017 | -84.70325 | 10595 ft | 294 kts | 277° |
| 2026-05-07 00:18 | 33.69389 | -84.72821 | 10838 ft | 313 kts | 273° |
| 2026-05-07 00:19 | 33.69339 | -84.75488 | 11070 ft | 328 kts | 259° |
| 2026-05-07 00:19 | 33.68589 | -84.78105 | 11565 ft | 336 kts | 243° |
| 2026-05-07 00:19 | 33.67282 | -84.80458 | 12257 ft | 341 kts | 235° |
| 2026-05-07 00:19 | 33.65855 | -84.82725 | 12951 ft | 345 kts | 234° |
| 2026-05-07 00:20 | 33.64392 | -84.85045 | 13653 ft | 348 kts | 234° |
| 2026-05-07 00:20 | 33.62931 | -84.87375 | 14255 ft | 351 kts | 235° |
| 2026-05-07 00:20 | 33.61459 | -84.89726 | 14867 ft | 353 kts | 235° |
| 2026-05-07 00:20 | 33.59984 | -84.92092 | 15477 ft | 356 kts | 236° |
| 2026-05-07 00:21 | 33.58502 | -84.94483 | 16090 ft | 359 kts | 236° |
| 2026-05-07 00:21 | 33.57007 | -84.96895 | 16660 ft | 363 kts | 236° |
| 2026-05-07 00:21 | 33.55494 | -84.99329 | 17257 ft | 366 kts | 236° |
| 2026-05-07 00:21 | 33.53965 | -85.01786 | 17842 ft | 369 kts | 237° |
| 2026-05-07 00:22 | 33.52424 | -85.04262 | 18423 ft | 372 kts | 237° |
| 2026-05-07 00:22 | 33.50873 | -85.06757 | 18941 ft | 374 kts | 237° |
| 2026-05-07 00:22 | 33.49315 | -85.09262 | 19466 ft | 376 kts | 237° |
| 2026-05-07 00:22 | 33.47746 | -85.11780 | 20006 ft | 378 kts | 237° |
| 2026-05-07 00:23 | 33.46170 | -85.14309 | 20530 ft | 380 kts | 238° |
| 2026-05-07 00:23 | 33.44583 | -85.16851 | 21056 ft | 382 kts | 238° |
| 2026-05-07 00:23 | 33.43006 | -85.19427 | 21562 ft | 383 kts | 240° |
| 2026-05-07 00:23 | 33.41736 | -85.22208 | 22057 ft | 380 kts | 250° |
| 2026-05-07 00:24 | 33.40900 | -85.25158 | 22555 ft | 380 kts | 256° |
| 2026-05-07 00:24 | 33.40161 | -85.28206 | 23060 ft | 382 kts | 256° |
| 2026-05-07 00:24 | 33.39425 | -85.31265 | 23561 ft | 384 kts | 256° |
| 2026-05-07 00:24 | 33.38676 | -85.34342 | 23950 ft | 386 kts | 256° |
| 2026-05-07 00:25 | 33.37917 | -85.37433 | 24338 ft | 389 kts | 256° |
| 2026-05-07 00:25 | 33.37148 | -85.40544 | 24734 ft | 391 kts | 256° |
| 2026-05-07 00:25 | 33.36360 | -85.43714 | 25124 ft | 393 kts | 255° |
| 2026-05-07 00:25 | 33.35591 | -85.46814 | 25486 ft | 396 kts | 255° |
| 2026-05-07 00:26 | 33.34805 | -85.49984 | 25855 ft | 399 kts | 255° |
| 2026-05-07 00:26 | 33.34012 | -85.53174 | 26224 ft | 401 kts | 255° |
| 2026-05-07 00:26 | 33.33212 | -85.56382 | 26569 ft | 404 kts | 255° |
| 2026-05-07 00:26 | 33.32407 | -85.59607 | 26907 ft | 406 kts | 255° |
| 2026-05-07 00:27 | 33.31597 | -85.62853 | 27221 ft | 409 kts | 255° |
| 2026-05-07 00:27 | 33.30782 | -85.66117 | 27583 ft | 410 kts | 255° |
| 2026-05-07 00:27 | 33.29965 | -85.69379 | 28003 ft | 409 kts | 255° |
| 2026-05-07 00:27 | 33.29149 | -85.72637 | 28432 ft | 409 kts | 255° |
| 2026-05-07 00:28 | 33.28331 | -85.75892 | 28852 ft | 409 kts | 255° |
| 2026-05-07 00:28 | 33.27502 | -85.79186 | 29284 ft | 408 kts | 255° |
| 2026-05-07 00:28 | 33.26686 | -85.82432 | 29690 ft | 408 kts | 255° |
| 2026-05-07 00:28 | 33.25869 | -85.85673 | 30079 ft | 407 kts | 255° |
| 2026-05-07 00:29 | 33.25053 | -85.88905 | 30419 ft | 406 kts | 255° |
| 2026-05-07 00:29 | 33.24238 | -85.92131 | 30777 ft | 405 kts | 255° |
| 2026-05-07 00:30 | 33.21813 | -86.01717 | 31860 ft | 400 kts | 255° |
| 2026-05-07 00:30 | 33.21008 | -86.04888 | 32210 ft | 398 kts | 255° |
| 2026-05-07 00:30 | 33.20205 | -86.08047 | 32531 ft | 397 kts | 255° |
| 2026-05-07 00:30 | 33.19404 | -86.11193 | 32869 ft | 395 kts | 255° |
| 2026-05-07 00:31 | 33.18617 | -86.14280 | 33209 ft | 394 kts | 255° |
| 2026-05-07 00:31 | 33.17812 | -86.17442 | 33536 ft | 392 kts | 255° |
| 2026-05-07 00:31 | 33.17015 | -86.20561 | 33837 ft | 393 kts | 254° |
| 2026-05-07 00:31 | 33.16231 | -86.23629 | 33965 ft | 391 kts | 254° |
| 2026-05-07 00:32 | 33.14649 | -86.29815 | 33980 ft | 389 kts | 254° |
| 2026-05-07 00:32 | 33.13069 | -86.35983 | 33970 ft | 389 kts | 254° |
| 2026-05-07 00:33 | 33.11479 | -86.42156 | 33968 ft | 389 kts | 254° |
| 2026-05-07 00:33 | 33.09883 | -86.48343 | 33956 ft | 394 kts | 254° |
| 2026-05-07 00:34 | 33.07886 | -86.54505 | 33955 ft | 404 kts | 243° |
| 2026-05-07 00:34 | 33.04184 | -86.59589 | 33935 ft | 412 kts | 223° |
| 2026-05-07 00:35 | 32.99379 | -86.63400 | 33941 ft | 416 kts | 218° |
| 2026-05-07 00:35 | 32.94520 | -86.67143 | 33942 ft | 416 kts | 219° |
| 2026-05-07 00:36 | 32.89686 | -86.70917 | 33941 ft | 415 kts | 219° |
| 2026-05-07 00:36 | 32.84857 | -86.74694 | 33940 ft | 416 kts | 219° |
| 2026-05-07 00:37 | 32.79977 | -86.78508 | 33937 ft | 422 kts | 219° |
| 2026-05-07 00:37 | 32.75067 | -86.82332 | 33940 ft | 422 kts | 219° |
| 2026-05-07 00:38 | 32.70155 | -86.86157 | 33943 ft | 422 kts | 219° |
| 2026-05-07 00:38 | 32.65253 | -86.89977 | 33937 ft | 422 kts | 218° |
| 2026-05-07 00:39 | 32.60345 | -86.93778 | 33941 ft | 420 kts | 219° |
| 2026-05-07 00:39 | 32.55436 | -86.97582 | 33935 ft | 421 kts | 219° |
| 2026-05-07 00:40 | 32.50538 | -87.01378 | 33934 ft | 419 kts | 219° |
| 2026-05-07 00:40 | 32.45645 | -87.05171 | 33934 ft | 421 kts | 218° |
| 2026-05-07 00:41 | 32.40736 | -87.08965 | 33936 ft | 422 kts | 219° |
| 2026-05-07 00:41 | 32.35813 | -87.12765 | 33942 ft | 422 kts | 219° |
| 2026-05-07 00:42 | 32.30897 | -87.16539 | 33928 ft | 420 kts | 219° |
| 2026-05-07 00:42 | 32.26007 | -87.20301 | 33927 ft | 419 kts | 220° |
| 2026-05-07 00:43 | 32.21142 | -87.24047 | 33929 ft | 421 kts | 219° |
| 2026-05-07 00:43 | 32.16254 | -87.27801 | 33935 ft | 421 kts | 219° |
| 2026-05-07 00:44 | 32.11358 | -87.31547 | 33940 ft | 420 kts | 219° |
| 2026-05-07 00:44 | 32.06463 | -87.35294 | 33942 ft | 420 kts | 219° |
| 2026-05-07 00:45 | 32.01596 | -87.39007 | 33949 ft | 415 kts | 219° |
| 2026-05-07 00:45 | 31.96756 | -87.42720 | 33949 ft | 416 kts | 219° |
| 2026-05-07 00:46 | 31.91886 | -87.46426 | 33941 ft | 417 kts | 219° |
| 2026-05-07 00:46 | 31.87020 | -87.50136 | 33944 ft | 417 kts | 219° |
| 2026-05-07 00:47 | 31.82150 | -87.53836 | 33942 ft | 416 kts | 219° |
| 2026-05-07 00:47 | 31.77291 | -87.57528 | 33929 ft | 416 kts | 219° |
| 2026-05-07 00:48 | 31.72414 | -87.61227 | 33942 ft | 418 kts | 219° |
| 2026-05-07 00:48 | 31.67528 | -87.64929 | 33948 ft | 418 kts | 219° |
| 2026-05-07 00:49 | 31.62639 | -87.68628 | 33952 ft | 418 kts | 219° |
| 2026-05-07 00:49 | 31.57754 | -87.72321 | 33953 ft | 418 kts | 218° |
| 2026-05-07 00:50 | 31.52878 | -87.76000 | 33951 ft | 417 kts | 218° |
| 2026-05-07 00:50 | 31.47998 | -87.79680 | 33947 ft | 419 kts | 219° |
| 2026-05-07 00:51 | 31.43113 | -87.83362 | 33957 ft | 418 kts | 218° |
| 2026-05-07 00:51 | 31.38222 | -87.87037 | 33971 ft | 418 kts | 218° |
| 2026-05-07 00:52 | 31.33332 | -87.90710 | 33969 ft | 418 kts | 218° |
| 2026-05-07 00:52 | 31.28468 | -87.94359 | 33970 ft | 418 kts | 218° |
| 2026-05-07 00:53 | 31.23569 | -87.98023 | 33972 ft | 418 kts | 218° |
| 2026-05-07 00:53 | 31.18644 | -88.01710 | 33972 ft | 423 kts | 218° |
| 2026-05-07 00:54 | 31.13686 | -88.05415 | 33985 ft | 424 kts | 218° |
| 2026-05-07 00:54 | 31.08716 | -88.09123 | 33970 ft | 424 kts | 218° |
| 2026-05-07 00:55 | 31.03742 | -88.12834 | 33985 ft | 425 kts | 218° |
| 2026-05-07 00:55 | 30.98757 | -88.16542 | 33986 ft | 425 kts | 218° |
| 2026-05-07 00:56 | 30.93774 | -88.20249 | 33965 ft | 425 kts | 219° |
| 2026-05-07 00:56 | 30.88778 | -88.23974 | 33984 ft | 426 kts | 219° |
| 2026-05-07 00:57 | 30.84626 | -88.27041 | 33988 ft | 425 kts | 219° |
| 2026-05-07 00:57 | 30.79625 | -88.30735 | 33993 ft | 425 kts | 219° |
| 2026-05-07 00:58 | 30.74691 | -88.34527 | 33993 ft | 421 kts | 225° |
| 2026-05-07 00:58 | 30.70960 | -88.39529 | 33989 ft | 406 kts | 244° |
| 2026-05-07 00:59 | 30.67132 | -88.48269 | 33962 ft | 404 kts | 247° |
| 2026-05-07 01:00 | 30.64591 | -88.54054 | 33953 ft | 402 kts | 247° |
| 2026-05-07 01:00 | 30.62036 | -88.59828 | 33962 ft | 401 kts | 246° |
| 2026-05-07 01:01 | 30.59492 | -88.65565 | 33965 ft | 398 kts | 246° |
| 2026-05-07 01:01 | 30.57385 | -88.70298 | 33965 ft | 397 kts | 246° |